sensor_id;sensor_type;location;lat;lon;timestamp;P1;durP1;ratioP1;P2;durP2;ratioP2
67500;SDS011;54349;52.528;19.760;2023-01-29T00:00:15;7.60;;;4.30;;
67500;SDS011;54349;52.528;19.760;2023-01-29T00:03:05;6.80;;;3.60;;
67500;SDS011;54349;52.528;19.760;2023-01-29T00:05:34;7.80;;;4.10;;
67500;SDS011;54349;52.528;19.760;2023-01-29T00:08:02;7.90;;;3.90;;
67500;SDS011;54349;52.528;19.760;2023-01-29T00:10:30;7.00;;;3.70;;
67500;SDS011;54349;52.528;19.760;2023-01-29T00:12:58;8.10;;;3.90;;
67500;SDS011;54349;52.528;19.760;2023-01-29T00:15:26;8.10;;;3.90;;
67500;SDS011;54349;52.528;19.760;2023-01-29T00:17:54;7.30;;;3.80;;
67500;SDS011;54349;52.528;19.760;2023-01-29T00:20:24;5.70;;;3.40;;
67500;SDS011;54349;52.528;19.760;2023-01-29T00:22:52;7.60;;;3.70;;
67500;SDS011;54349;52.528;19.760;2023-01-29T00:25:21;6.20;;;3.50;;
67500;SDS011;54349;52.528;19.760;2023-01-29T00:27:49;5.90;;;3.50;;
67500;SDS011;54349;52.528;19.760;2023-01-29T00:30:18;6.40;;;3.60;;
67500;SDS011;54349;52.528;19.760;2023-01-29T00:32:47;6.10;;;3.30;;
67500;SDS011;54349;52.528;19.760;2023-01-29T00:35:16;6.60;;;3.80;;
67500;SDS011;54349;52.528;19.760;2023-01-29T00:37:44;6.80;;;3.60;;
67500;SDS011;54349;52.528;19.760;2023-01-29T00:40:12;6.40;;;3.50;;
67500;SDS011;54349;52.528;19.760;2023-01-29T00:42:43;5.70;;;3.20;;
67500;SDS011;54349;52.528;19.760;2023-01-29T00:45:32;6.10;;;3.10;;
67500;SDS011;54349;52.528;19.760;2023-01-29T00:48:03;6.50;;;3.00;;
67500;SDS011;54349;52.528;19.760;2023-01-29T00:50:32;6.40;;;3.40;;
67500;SDS011;54349;52.528;19.760;2023-01-29T00:53:01;6.30;;;3.60;;
67500;SDS011;54349;52.528;19.760;2023-01-29T00:56:14;5.80;;;3.20;;
67500;SDS011;54349;52.528;19.760;2023-01-29T00:58:42;6.00;;;3.00;;
67500;SDS011;54349;52.528;19.760;2023-01-29T01:01:11;6.30;;;3.10;;
67500;SDS011;54349;52.528;19.760;2023-01-29T01:03:39;5.60;;;3.30;;
67500;SDS011;54349;52.528;19.760;2023-01-29T01:06:09;5.30;;;3.00;;
67500;SDS011;54349;52.528;19.760;2023-01-29T01:08:37;5.80;;;3.50;;
67500;SDS011;54349;52.528;19.760;2023-01-29T01:11:24;6.00;;;3.00;;
67500;SDS011;54349;52.528;19.760;2023-01-29T01:13:52;6.10;;;3.20;;
67500;SDS011;54349;52.528;19.760;2023-01-29T01:16:21;5.60;;;3.10;;
67500;SDS011;54349;52.528;19.760;2023-01-29T01:18:52;5.30;;;3.00;;
67500;SDS011;54349;52.528;19.760;2023-01-29T01:21:20;5.80;;;3.20;;
67500;SDS011;54349;52.528;19.760;2023-01-29T01:23:48;5.80;;;3.00;;
67500;SDS011;54349;52.528;19.760;2023-01-29T01:26:19;5.90;;;2.90;;
67500;SDS011;54349;52.528;19.760;2023-01-29T01:28:46;5.60;;;3.10;;
67500;SDS011;54349;52.528;19.760;2023-01-29T01:31:14;7.00;;;3.60;;
67500;SDS011;54349;52.528;19.760;2023-01-29T01:33:43;5.60;;;2.90;;
67500;SDS011;54349;52.528;19.760;2023-01-29T01:36:11;5.40;;;3.20;;
67500;SDS011;54349;52.528;19.760;2023-01-29T01:38:40;6.30;;;3.40;;
67500;SDS011;54349;52.528;19.760;2023-01-29T01:41:17;5.60;;;3.10;;
67500;SDS011;54349;52.528;19.760;2023-01-29T01:43:56;6.60;;;3.30;;
67500;SDS011;54349;52.528;19.760;2023-01-29T01:46:32;6.10;;;3.10;;
67500;SDS011;54349;52.528;19.760;2023-01-29T01:49:12;5.20;;;3.00;;
67500;SDS011;54349;52.528;19.760;2023-01-29T01:51:45;6.20;;;3.40;;
67500;SDS011;54349;52.528;19.760;2023-01-29T01:54:22;6.10;;;3.50;;
67500;SDS011;54349;52.528;19.760;2023-01-29T01:56:56;6.30;;;3.30;;
67500;SDS011;54349;52.528;19.760;2023-01-29T01:59:37;5.40;;;3.00;;
67500;SDS011;54349;52.528;19.760;2023-01-29T02:02:07;6.20;;;3.40;;
67500;SDS011;54349;52.528;19.760;2023-01-29T02:04:56;6.10;;;3.40;;
67500;SDS011;54349;52.528;19.760;2023-01-29T02:07:46;6.50;;;3.40;;
67500;SDS011;54349;52.528;19.760;2023-01-29T02:10:44;5.90;;;3.20;;
67500;SDS011;54349;52.528;19.760;2023-01-29T02:13:14;5.70;;;3.20;;
67500;SDS011;54349;52.528;19.760;2023-01-29T02:15:45;6.60;;;3.60;;
67500;SDS011;54349;52.528;19.760;2023-01-29T02:18:17;5.50;;;2.90;;
67500;SDS011;54349;52.528;19.760;2023-01-29T02:21:03;7.00;;;3.60;;
67500;SDS011;54349;52.528;19.760;2023-01-29T02:27:09;5.70;;;3.00;;
67500;SDS011;54349;52.528;19.760;2023-01-29T02:33:18;6.90;;;3.50;;
67500;SDS011;54349;52.528;19.760;2023-01-29T02:39:15;6.90;;;3.60;;
67500;SDS011;54349;52.528;19.760;2023-01-29T02:42:13;6.40;;;3.40;;
67500;SDS011;54349;52.528;19.760;2023-01-29T02:45:04;5.80;;;3.30;;
67500;SDS011;54349;52.528;19.760;2023-01-29T02:47:44;6.20;;;3.30;;
67500;SDS011;54349;52.528;19.760;2023-01-29T02:50:21;5.70;;;3.10;;
67500;SDS011;54349;52.528;19.760;2023-01-29T02:53:17;5.80;;;3.10;;
67500;SDS011;54349;52.528;19.760;2023-01-29T02:56:18;5.80;;;3.30;;
67500;SDS011;54349;52.528;19.760;2023-01-29T02:58:59;7.90;;;3.50;;
67500;SDS011;54349;52.528;19.760;2023-01-29T03:01:40;6.40;;;3.40;;
67500;SDS011;54349;52.528;19.760;2023-01-29T03:04:23;6.10;;;3.10;;
67500;SDS011;54349;52.528;19.760;2023-01-29T03:07:05;5.20;;;3.00;;
67500;SDS011;54349;52.528;19.760;2023-01-29T03:09:43;6.30;;;3.10;;
67500;SDS011;54349;52.528;19.760;2023-01-29T03:12:24;6.40;;;3.10;;
67500;SDS011;54349;52.528;19.760;2023-01-29T03:15:07;6.30;;;3.30;;
67500;SDS011;54349;52.528;19.760;2023-01-29T03:17:57;5.90;;;3.10;;
67500;SDS011;54349;52.528;19.760;2023-01-29T03:20:34;6.50;;;3.20;;
67500;SDS011;54349;52.528;19.760;2023-01-29T03:23:11;7.30;;;3.50;;
67500;SDS011;54349;52.528;19.760;2023-01-29T03:25:44;6.60;;;3.30;;
67500;SDS011;54349;52.528;19.760;2023-01-29T03:28:32;6.40;;;3.30;;
67500;SDS011;54349;52.528;19.760;2023-01-29T03:31:19;6.70;;;3.50;;
67500;SDS011;54349;52.528;19.760;2023-01-29T03:34:11;6.70;;;3.60;;
67500;SDS011;54349;52.528;19.760;2023-01-29T03:36:51;7.30;;;3.50;;
67500;SDS011;54349;52.528;19.760;2023-01-29T03:39:25;6.70;;;3.30;;
67500;SDS011;54349;52.528;19.760;2023-01-29T03:44:55;6.50;;;3.50;;
67500;SDS011;54349;52.528;19.760;2023-01-29T03:47:47;6.30;;;3.30;;
67500;SDS011;54349;52.528;19.760;2023-01-29T03:50:53;6.80;;;3.40;;
67500;SDS011;54349;52.528;19.760;2023-01-29T03:53:53;5.50;;;3.10;;
67500;SDS011;54349;52.528;19.760;2023-01-29T04:02:55;6.50;;;3.40;;
67500;SDS011;54349;52.528;19.760;2023-01-29T04:05:50;6.30;;;3.50;;
67500;SDS011;54349;52.528;19.760;2023-01-29T04:08:33;7.20;;;3.80;;
67500;SDS011;54349;52.528;19.760;2023-01-29T04:11:15;7.00;;;3.40;;
67500;SDS011;54349;52.528;19.760;2023-01-29T04:13:48;7.20;;;3.70;;
67500;SDS011;54349;52.528;19.760;2023-01-29T04:16:21;6.80;;;3.80;;
67500;SDS011;54349;52.528;19.760;2023-01-29T04:19:17;7.00;;;3.60;;
67500;SDS011;54349;52.528;19.760;2023-01-29T04:21:47;6.10;;;3.40;;
67500;SDS011;54349;52.528;19.760;2023-01-29T04:24:17;6.60;;;3.60;;
67500;SDS011;54349;52.528;19.760;2023-01-29T04:36:27;7.30;;;3.70;;
67500;SDS011;54349;52.528;19.760;2023-01-29T04:39:36;6.70;;;3.70;;
67500;SDS011;54349;52.528;19.760;2023-01-29T04:45:26;7.60;;;4.00;;
67500;SDS011;54349;52.528;19.760;2023-01-29T04:50:40;6.30;;;3.90;;
67500;SDS011;54349;52.528;19.760;2023-01-29T04:56:34;7.10;;;3.80;;
67500;SDS011;54349;52.528;19.760;2023-01-29T04:59:35;7.60;;;3.90;;
67500;SDS011;54349;52.528;19.760;2023-01-29T05:02:10;8.90;;;3.80;;
67500;SDS011;54349;52.528;19.760;2023-01-29T05:04:42;9.50;;;4.10;;
67500;SDS011;54349;52.528;19.760;2023-01-29T05:07:14;6.30;;;3.60;;
67500;SDS011;54349;52.528;19.760;2023-01-29T05:09:44;7.50;;;4.20;;
67500;SDS011;54349;52.528;19.760;2023-01-29T05:12:15;7.90;;;3.90;;
67500;SDS011;54349;52.528;19.760;2023-01-29T05:14:45;7.40;;;4.20;;
67500;SDS011;54349;52.528;19.760;2023-01-29T05:17:18;7.20;;;3.80;;
67500;SDS011;54349;52.528;19.760;2023-01-29T05:19:47;7.30;;;4.30;;
67500;SDS011;54349;52.528;19.760;2023-01-29T05:22:17;7.20;;;4.10;;
67500;SDS011;54349;52.528;19.760;2023-01-29T05:24:49;7.60;;;4.10;;
67500;SDS011;54349;52.528;19.760;2023-01-29T05:27:21;7.40;;;4.10;;
67500;SDS011;54349;52.528;19.760;2023-01-29T05:30:15;8.20;;;3.80;;
67500;SDS011;54349;52.528;19.760;2023-01-29T05:32:43;7.20;;;3.90;;
67500;SDS011;54349;52.528;19.760;2023-01-29T05:35:11;7.00;;;3.80;;
67500;SDS011;54349;52.528;19.760;2023-01-29T05:37:39;6.70;;;3.60;;
67500;SDS011;54349;52.528;19.760;2023-01-29T05:40:08;7.80;;;4.30;;
67500;SDS011;54349;52.528;19.760;2023-01-29T05:42:37;7.30;;;3.70;;
67500;SDS011;54349;52.528;19.760;2023-01-29T05:45:05;7.80;;;4.20;;
67500;SDS011;54349;52.528;19.760;2023-01-29T05:47:34;7.40;;;4.10;;
67500;SDS011;54349;52.528;19.760;2023-01-29T05:50:03;8.00;;;4.00;;
67500;SDS011;54349;52.528;19.760;2023-01-29T05:52:32;8.70;;;4.10;;
67500;SDS011;54349;52.528;19.760;2023-01-29T05:55:00;7.50;;;4.10;;
67500;SDS011;54349;52.528;19.760;2023-01-29T05:57:28;7.60;;;3.80;;
67500;SDS011;54349;52.528;19.760;2023-01-29T05:59:58;8.00;;;4.20;;
67500;SDS011;54349;52.528;19.760;2023-01-29T06:02:29;7.00;;;3.80;;
67500;SDS011;54349;52.528;19.760;2023-01-29T06:04:58;7.30;;;4.20;;
67500;SDS011;54349;52.528;19.760;2023-01-29T06:07:26;8.80;;;4.00;;
67500;SDS011;54349;52.528;19.760;2023-01-29T06:09:54;7.40;;;3.60;;
67500;SDS011;54349;52.528;19.760;2023-01-29T06:12:22;7.40;;;3.90;;
67500;SDS011;54349;52.528;19.760;2023-01-29T06:14:51;8.40;;;4.20;;
67500;SDS011;54349;52.528;19.760;2023-01-29T06:17:19;7.00;;;3.70;;
67500;SDS011;54349;52.528;19.760;2023-01-29T06:19:47;6.80;;;3.90;;
67500;SDS011;54349;52.528;19.760;2023-01-29T06:22:15;7.50;;;4.10;;
67500;SDS011;54349;52.528;19.760;2023-01-29T06:24:42;7.30;;;3.70;;
67500;SDS011;54349;52.528;19.760;2023-01-29T06:27:12;6.30;;;3.80;;
67500;SDS011;54349;52.528;19.760;2023-01-29T06:29:40;7.40;;;4.30;;
67500;SDS011;54349;52.528;19.760;2023-01-29T06:32:08;6.50;;;3.90;;
67500;SDS011;54349;52.528;19.760;2023-01-29T06:34:36;8.10;;;4.40;;
67500;SDS011;54349;52.528;19.760;2023-01-29T06:37:05;7.60;;;4.00;;
67500;SDS011;54349;52.528;19.760;2023-01-29T06:39:34;8.10;;;4.00;;
67500;SDS011;54349;52.528;19.760;2023-01-29T06:42:02;7.20;;;3.90;;
67500;SDS011;54349;52.528;19.760;2023-01-29T06:44:30;7.00;;;4.00;;
67500;SDS011;54349;52.528;19.760;2023-01-29T06:46:58;7.50;;;4.00;;
67500;SDS011;54349;52.528;19.760;2023-01-29T06:49:27;6.50;;;3.80;;
67500;SDS011;54349;52.528;19.760;2023-01-29T06:51:56;7.70;;;3.90;;
67500;SDS011;54349;52.528;19.760;2023-01-29T06:54:24;7.70;;;3.90;;
67500;SDS011;54349;52.528;19.760;2023-01-29T06:56:52;8.50;;;4.30;;
67500;SDS011;54349;52.528;19.760;2023-01-29T06:59:20;8.60;;;4.20;;
67500;SDS011;54349;52.528;19.760;2023-01-29T07:01:48;6.10;;;3.80;;
67500;SDS011;54349;52.528;19.760;2023-01-29T07:04:17;7.50;;;4.00;;
67500;SDS011;54349;52.528;19.760;2023-01-29T07:06:45;6.50;;;3.70;;
67500;SDS011;54349;52.528;19.760;2023-01-29T07:09:13;6.70;;;3.70;;
67500;SDS011;54349;52.528;19.760;2023-01-29T07:11:41;7.60;;;4.00;;
67500;SDS011;54349;52.528;19.760;2023-01-29T07:14:10;6.50;;;4.10;;
67500;SDS011;54349;52.528;19.760;2023-01-29T07:16:38;6.60;;;3.70;;
67500;SDS011;54349;52.528;19.760;2023-01-29T07:19:06;6.70;;;3.80;;
67500;SDS011;54349;52.528;19.760;2023-01-29T07:21:36;6.90;;;3.80;;
67500;SDS011;54349;52.528;19.760;2023-01-29T07:24:04;8.20;;;4.30;;
67500;SDS011;54349;52.528;19.760;2023-01-29T07:26:32;6.80;;;3.60;;
67500;SDS011;54349;52.528;19.760;2023-01-29T07:29:03;7.70;;;4.40;;
67500;SDS011;54349;52.528;19.760;2023-01-29T07:31:32;7.20;;;4.00;;
67500;SDS011;54349;52.528;19.760;2023-01-29T07:34:01;7.20;;;4.20;;
67500;SDS011;54349;52.528;19.760;2023-01-29T07:36:30;7.90;;;4.30;;
67500;SDS011;54349;52.528;19.760;2023-01-29T07:38:58;7.30;;;4.00;;
67500;SDS011;54349;52.528;19.760;2023-01-29T07:41:26;7.10;;;3.90;;
67500;SDS011;54349;52.528;19.760;2023-01-29T07:43:54;7.40;;;4.20;;
67500;SDS011;54349;52.528;19.760;2023-01-29T07:46:22;8.80;;;4.10;;
67500;SDS011;54349;52.528;19.760;2023-01-29T07:48:50;6.50;;;3.70;;
67500;SDS011;54349;52.528;19.760;2023-01-29T07:51:18;6.60;;;3.60;;
67500;SDS011;54349;52.528;19.760;2023-01-29T07:53:48;6.50;;;4.00;;
67500;SDS011;54349;52.528;19.760;2023-01-29T07:56:16;7.20;;;3.70;;
67500;SDS011;54349;52.528;19.760;2023-01-29T07:58:44;7.20;;;4.00;;
67500;SDS011;54349;52.528;19.760;2023-01-29T08:01:12;7.40;;;4.20;;
67500;SDS011;54349;52.528;19.760;2023-01-29T08:03:40;7.50;;;4.00;;
67500;SDS011;54349;52.528;19.760;2023-01-29T08:06:09;7.60;;;3.70;;
67500;SDS011;54349;52.528;19.760;2023-01-29T08:08:37;7.50;;;3.80;;
67500;SDS011;54349;52.528;19.760;2023-01-29T08:11:05;6.00;;;3.30;;
67500;SDS011;54349;52.528;19.760;2023-01-29T08:13:33;6.60;;;3.80;;
67500;SDS011;54349;52.528;19.760;2023-01-29T08:16:02;6.70;;;4.00;;
67500;SDS011;54349;52.528;19.760;2023-01-29T08:18:31;6.20;;;3.80;;
67500;SDS011;54349;52.528;19.760;2023-01-29T08:21:00;7.90;;;4.40;;
67500;SDS011;54349;52.528;19.760;2023-01-29T08:23:29;7.40;;;4.10;;
67500;SDS011;54349;52.528;19.760;2023-01-29T08:25:57;7.90;;;4.20;;
67500;SDS011;54349;52.528;19.760;2023-01-29T08:28:25;6.30;;;3.60;;
67500;SDS011;54349;52.528;19.760;2023-01-29T08:30:53;7.30;;;3.50;;
67500;SDS011;54349;52.528;19.760;2023-01-29T08:33:22;6.80;;;3.70;;
67500;SDS011;54349;52.528;19.760;2023-01-29T08:36:06;6.90;;;3.80;;
67500;SDS011;54349;52.528;19.760;2023-01-29T08:38:35;5.80;;;3.50;;
67500;SDS011;54349;52.528;19.760;2023-01-29T08:41:04;8.10;;;3.50;;
67500;SDS011;54349;52.528;19.760;2023-01-29T08:43:34;6.20;;;3.50;;
67500;SDS011;54349;52.528;19.760;2023-01-29T08:46:04;6.60;;;3.50;;
67500;SDS011;54349;52.528;19.760;2023-01-29T08:48:34;6.70;;;3.60;;
67500;SDS011;54349;52.528;19.760;2023-01-29T08:51:03;6.10;;;3.40;;
67500;SDS011;54349;52.528;19.760;2023-01-29T08:53:32;6.80;;;3.80;;
67500;SDS011;54349;52.528;19.760;2023-01-29T08:56:00;6.50;;;3.30;;
67500;SDS011;54349;52.528;19.760;2023-01-29T08:58:28;6.30;;;3.60;;
67500;SDS011;54349;52.528;19.760;2023-01-29T09:01:05;6.40;;;3.70;;
67500;SDS011;54349;52.528;19.760;2023-01-29T09:03:37;6.40;;;3.50;;
67500;SDS011;54349;52.528;19.760;2023-01-29T09:06:12;5.90;;;3.30;;
67500;SDS011;54349;52.528;19.760;2023-01-29T09:08:41;6.80;;;3.60;;
67500;SDS011;54349;52.528;19.760;2023-01-29T09:11:10;6.00;;;3.80;;
67500;SDS011;54349;52.528;19.760;2023-01-29T09:13:38;6.50;;;3.50;;
67500;SDS011;54349;52.528;19.760;2023-01-29T09:16:06;6.50;;;3.90;;
67500;SDS011;54349;52.528;19.760;2023-01-29T09:18:34;6.90;;;3.80;;
67500;SDS011;54349;52.528;19.760;2023-01-29T09:21:03;6.60;;;3.60;;
67500;SDS011;54349;52.528;19.760;2023-01-29T09:23:32;6.70;;;3.40;;
67500;SDS011;54349;52.528;19.760;2023-01-29T09:26:00;6.80;;;3.60;;
67500;SDS011;54349;52.528;19.760;2023-01-29T09:28:29;6.30;;;3.80;;
67500;SDS011;54349;52.528;19.760;2023-01-29T09:31:00;6.60;;;3.50;;
67500;SDS011;54349;52.528;19.760;2023-01-29T09:33:29;6.60;;;3.50;;
67500;SDS011;54349;52.528;19.760;2023-01-29T09:36:01;7.30;;;4.00;;
67500;SDS011;54349;52.528;19.760;2023-01-29T09:38:31;6.80;;;3.70;;
67500;SDS011;54349;52.528;19.760;2023-01-29T09:47:10;5.70;;;3.60;;
67500;SDS011;54349;52.528;19.760;2023-01-29T09:49:56;7.20;;;3.80;;
67500;SDS011;54349;52.528;19.760;2023-01-29T09:56:11;6.00;;;3.50;;
67500;SDS011;54349;52.528;19.760;2023-01-29T09:58:43;6.20;;;3.60;;
67500;SDS011;54349;52.528;19.760;2023-01-29T10:01:14;5.80;;;3.60;;
67500;SDS011;54349;52.528;19.760;2023-01-29T10:25:54;5.90;;;3.70;;
67500;SDS011;54349;52.528;19.760;2023-01-29T10:28:35;6.80;;;4.00;;
67500;SDS011;54349;52.528;19.760;2023-01-29T10:31:14;5.70;;;3.60;;
67500;SDS011;54349;52.528;19.760;2023-01-29T10:33:53;5.70;;;4.00;;
67500;SDS011;54349;52.528;19.760;2023-01-29T10:36:42;7.50;;;4.20;;
67500;SDS011;54349;52.528;19.760;2023-01-29T10:39:18;6.30;;;4.00;;
67500;SDS011;54349;52.528;19.760;2023-01-29T10:58:25;6.90;;;4.10;;
67500;SDS011;54349;52.528;19.760;2023-01-29T11:01:13;6.60;;;4.30;;
67500;SDS011;54349;52.528;19.760;2023-01-29T11:03:42;6.40;;;4.00;;
67500;SDS011;54349;52.528;19.760;2023-01-29T11:06:20;8.20;;;4.20;;
67500;SDS011;54349;52.528;19.760;2023-01-29T11:14:30;6.60;;;3.90;;
67500;SDS011;54349;52.528;19.760;2023-01-29T11:17:20;7.30;;;4.30;;
67500;SDS011;54349;52.528;19.760;2023-01-29T11:19:51;7.20;;;4.50;;
67500;SDS011;54349;52.528;19.760;2023-01-29T11:22:26;6.30;;;4.20;;
67500;SDS011;54349;52.528;19.760;2023-01-29T11:27:49;7.40;;;4.60;;
67500;SDS011;54349;52.528;19.760;2023-01-29T11:35:32;8.00;;;5.00;;
67500;SDS011;54349;52.528;19.760;2023-01-29T11:40:44;7.20;;;4.50;;
67500;SDS011;54349;52.528;19.760;2023-01-29T11:43:28;7.00;;;4.60;;
67500;SDS011;54349;52.528;19.760;2023-01-29T11:46:05;7.90;;;4.80;;
67500;SDS011;54349;52.528;19.760;2023-01-29T11:48:43;7.10;;;4.30;;
67500;SDS011;54349;52.528;19.760;2023-01-29T11:51:25;7.50;;;4.70;;
67500;SDS011;54349;52.528;19.760;2023-01-29T11:53:58;7.80;;;5.10;;
67500;SDS011;54349;52.528;19.760;2023-01-29T11:56:34;7.70;;;4.70;;
67500;SDS011;54349;52.528;19.760;2023-01-29T11:59:39;7.00;;;4.80;;
67500;SDS011;54349;52.528;19.760;2023-01-29T12:02:25;8.10;;;5.20;;
67500;SDS011;54349;52.528;19.760;2023-01-29T12:05:00;7.10;;;4.50;;
67500;SDS011;54349;52.528;19.760;2023-01-29T12:07:32;9.30;;;5.50;;
67500;SDS011;54349;52.528;19.760;2023-01-29T12:10:01;8.30;;;5.20;;
67500;SDS011;54349;52.528;19.760;2023-01-29T12:12:31;7.20;;;4.70;;
67500;SDS011;54349;52.528;19.760;2023-01-29T12:15:14;7.80;;;5.30;;
67500;SDS011;54349;52.528;19.760;2023-01-29T12:21:35;7.40;;;5.10;;
67500;SDS011;54349;52.528;19.760;2023-01-29T12:26:54;8.30;;;4.90;;
67500;SDS011;54349;52.528;19.760;2023-01-29T12:29:36;8.00;;;5.00;;
67500;SDS011;54349;52.528;19.760;2023-01-29T12:38:13;7.60;;;5.00;;
67500;SDS011;54349;52.528;19.760;2023-01-29T12:45:06;8.80;;;5.40;;
67500;SDS011;54349;52.528;19.760;2023-01-29T12:47:41;9.70;;;5.80;;
67500;SDS011;54349;52.528;19.760;2023-01-29T12:50:18;8.70;;;5.40;;
67500;SDS011;54349;52.528;19.760;2023-01-29T12:52:55;8.70;;;5.60;;
67500;SDS011;54349;52.528;19.760;2023-01-29T12:58:47;9.10;;;5.60;;
67500;SDS011;54349;52.528;19.760;2023-01-29T13:01:42;9.60;;;6.00;;
67500;SDS011;54349;52.528;19.760;2023-01-29T13:04:28;9.50;;;5.80;;
67500;SDS011;54349;52.528;19.760;2023-01-29T13:07:10;9.60;;;6.20;;
67500;SDS011;54349;52.528;19.760;2023-01-29T13:10:03;8.70;;;5.50;;
67500;SDS011;54349;52.528;19.760;2023-01-29T13:12:50;8.80;;;5.60;;
67500;SDS011;54349;52.528;19.760;2023-01-29T13:15:35;9.70;;;6.10;;
67500;SDS011;54349;52.528;19.760;2023-01-29T13:20:42;9.20;;;5.60;;
67500;SDS011;54349;52.528;19.760;2023-01-29T13:23:20;8.60;;;5.60;;
67500;SDS011;54349;52.528;19.760;2023-01-29T13:25:52;9.00;;;5.80;;
67500;SDS011;54349;52.528;19.760;2023-01-29T13:28:24;9.60;;;5.60;;
67500;SDS011;54349;52.528;19.760;2023-01-29T13:33:59;8.50;;;5.90;;
67500;SDS011;54349;52.528;19.760;2023-01-29T13:36:29;10.40;;;6.10;;
67500;SDS011;54349;52.528;19.760;2023-01-29T13:39:04;12.10;;;6.20;;
67500;SDS011;54349;52.528;19.760;2023-01-29T13:41:40;9.60;;;6.10;;
67500;SDS011;54349;52.528;19.760;2023-01-29T13:44:36;10.60;;;6.60;;
67500;SDS011;54349;52.528;19.760;2023-01-29T13:47:10;11.20;;;6.40;;
67500;SDS011;54349;52.528;19.760;2023-01-29T13:50:00;9.30;;;6.30;;
67500;SDS011;54349;52.528;19.760;2023-01-29T13:52:58;10.60;;;6.40;;
67500;SDS011;54349;52.528;19.760;2023-01-29T13:55:31;10.30;;;6.70;;
67500;SDS011;54349;52.528;19.760;2023-01-29T13:58:03;11.90;;;6.60;;
67500;SDS011;54349;52.528;19.760;2023-01-29T14:05:37;9.30;;;5.90;;
67500;SDS011;54349;52.528;19.760;2023-01-29T14:10:42;9.60;;;6.10;;
67500;SDS011;54349;52.528;19.760;2023-01-29T14:18:26;10.00;;;6.30;;
67500;SDS011;54349;52.528;19.760;2023-01-29T14:23:52;9.30;;;6.00;;
67500;SDS011;54349;52.528;19.760;2023-01-29T14:26:29;9.40;;;5.80;;
67500;SDS011;54349;52.528;19.760;2023-01-29T14:29:03;8.90;;;5.80;;
67500;SDS011;54349;52.528;19.760;2023-01-29T14:34:40;9.70;;;6.30;;
67500;SDS011;54349;52.528;19.760;2023-01-29T14:39:44;8.50;;;5.70;;
67500;SDS011;54349;52.528;19.760;2023-01-29T14:49:56;9.20;;;6.30;;
67500;SDS011;54349;52.528;19.760;2023-01-29T14:52:38;9.30;;;5.70;;
67500;SDS011;54349;52.528;19.760;2023-01-29T14:55:19;10.70;;;5.90;;
67500;SDS011;54349;52.528;19.760;2023-01-29T14:58:05;8.50;;;5.80;;
67500;SDS011;54349;52.528;19.760;2023-01-29T15:00:43;9.30;;;5.60;;
67500;SDS011;54349;52.528;19.760;2023-01-29T15:03:27;9.50;;;5.90;;
67500;SDS011;54349;52.528;19.760;2023-01-29T15:05:57;9.30;;;5.90;;
67500;SDS011;54349;52.528;19.760;2023-01-29T15:08:40;9.60;;;5.60;;
67500;SDS011;54349;52.528;19.760;2023-01-29T15:11:35;11.10;;;5.80;;
67500;SDS011;54349;52.528;19.760;2023-01-29T15:14:35;10.50;;;5.90;;
67500;SDS011;54349;52.528;19.760;2023-01-29T15:19:40;11.00;;;5.70;;
67500;SDS011;54349;52.528;19.760;2023-01-29T15:22:19;9.60;;;5.60;;
67500;SDS011;54349;52.528;19.760;2023-01-29T15:25:08;9.20;;;5.60;;
67500;SDS011;54349;52.528;19.760;2023-01-29T15:27:42;9.40;;;5.30;;
67500;SDS011;54349;52.528;19.760;2023-01-29T15:30:21;10.70;;;6.40;;
67500;SDS011;54349;52.528;19.760;2023-01-29T15:32:53;12.30;;;5.80;;
67500;SDS011;54349;52.528;19.760;2023-01-29T15:35:30;8.30;;;5.40;;
67500;SDS011;54349;52.528;19.760;2023-01-29T15:38:06;8.50;;;5.20;;
67500;SDS011;54349;52.528;19.760;2023-01-29T15:43:48;8.10;;;5.50;;
67500;SDS011;54349;52.528;19.760;2023-01-29T15:46:35;8.90;;;5.40;;
67500;SDS011;54349;52.528;19.760;2023-01-29T15:49:10;9.20;;;5.60;;
67500;SDS011;54349;52.528;19.760;2023-01-29T15:51:47;9.70;;;5.90;;
67500;SDS011;54349;52.528;19.760;2023-01-29T15:54:16;8.70;;;5.60;;
67500;SDS011;54349;52.528;19.760;2023-01-29T15:56:47;11.00;;;6.40;;
67500;SDS011;54349;52.528;19.760;2023-01-29T15:59:24;11.60;;;6.60;;
67500;SDS011;54349;52.528;19.760;2023-01-29T16:01:54;10.00;;;6.20;;
67500;SDS011;54349;52.528;19.760;2023-01-29T16:04:26;8.90;;;6.00;;
67500;SDS011;54349;52.528;19.760;2023-01-29T16:06:59;9.40;;;6.10;;
67500;SDS011;54349;52.528;19.760;2023-01-29T16:09:31;10.40;;;6.30;;
67500;SDS011;54349;52.528;19.760;2023-01-29T16:11:59;10.50;;;6.20;;
67500;SDS011;54349;52.528;19.760;2023-01-29T16:14:29;10.70;;;6.40;;
67500;SDS011;54349;52.528;19.760;2023-01-29T16:17:30;8.90;;;5.60;;
67500;SDS011;54349;52.528;19.760;2023-01-29T16:20:05;10.20;;;6.10;;
67500;SDS011;54349;52.528;19.760;2023-01-29T16:22:47;11.20;;;6.20;;
67500;SDS011;54349;52.528;19.760;2023-01-29T16:25:15;8.60;;;5.60;;
67500;SDS011;54349;52.528;19.760;2023-01-29T16:27:43;8.90;;;5.60;;
67500;SDS011;54349;52.528;19.760;2023-01-29T16:30:15;10.00;;;5.60;;
67500;SDS011;54349;52.528;19.760;2023-01-29T16:32:44;8.90;;;5.60;;
67500;SDS011;54349;52.528;19.760;2023-01-29T16:35:15;9.00;;;5.40;;
67500;SDS011;54349;52.528;19.760;2023-01-29T16:38:05;9.10;;;5.90;;
67500;SDS011;54349;52.528;19.760;2023-01-29T16:41:04;10.30;;;6.00;;
67500;SDS011;54349;52.528;19.760;2023-01-29T16:48:46;7.90;;;5.40;;
67500;SDS011;54349;52.528;19.760;2023-01-29T16:51:24;9.10;;;5.80;;
67500;SDS011;54349;52.528;19.760;2023-01-29T16:54:14;9.50;;;5.90;;
67500;SDS011;54349;52.528;19.760;2023-01-29T16:56:49;9.00;;;5.10;;
67500;SDS011;54349;52.528;19.760;2023-01-29T16:59:31;9.30;;;5.40;;
67500;SDS011;54349;52.528;19.760;2023-01-29T17:02:03;8.40;;;5.40;;
67500;SDS011;54349;52.528;19.760;2023-01-29T17:04:39;9.30;;;5.60;;
67500;SDS011;54349;52.528;19.760;2023-01-29T17:07:14;9.10;;;5.60;;
67500;SDS011;54349;52.528;19.760;2023-01-29T17:09:52;8.00;;;5.50;;
67500;SDS011;54349;52.528;19.760;2023-01-29T17:12:25;8.30;;;5.50;;
67500;SDS011;54349;52.528;19.760;2023-01-29T17:14:59;8.50;;;5.60;;
67500;SDS011;54349;52.528;19.760;2023-01-29T17:17:31;8.80;;;5.20;;
67500;SDS011;54349;52.528;19.760;2023-01-29T17:20:13;10.00;;;5.50;;
67500;SDS011;54349;52.528;19.760;2023-01-29T17:22:43;9.30;;;5.70;;
67500;SDS011;54349;52.528;19.760;2023-01-29T17:25:14;8.70;;;5.40;;
67500;SDS011;54349;52.528;19.760;2023-01-29T17:27:44;8.80;;;5.50;;
67500;SDS011;54349;52.528;19.760;2023-01-29T17:30:20;9.50;;;5.90;;
67500;SDS011;54349;52.528;19.760;2023-01-29T17:32:50;9.90;;;5.70;;
67500;SDS011;54349;52.528;19.760;2023-01-29T17:35:20;8.10;;;5.60;;
67500;SDS011;54349;52.528;19.760;2023-01-29T17:37:48;9.20;;;5.70;;
67500;SDS011;54349;52.528;19.760;2023-01-29T17:40:29;8.70;;;5.70;;
67500;SDS011;54349;52.528;19.760;2023-01-29T17:43:04;9.90;;;6.20;;
67500;SDS011;54349;52.528;19.760;2023-01-29T17:45:33;9.10;;;5.90;;
67500;SDS011;54349;52.528;19.760;2023-01-29T17:48:02;10.70;;;6.10;;
67500;SDS011;54349;52.528;19.760;2023-01-29T17:50:33;8.80;;;5.80;;
67500;SDS011;54349;52.528;19.760;2023-01-29T17:53:02;9.20;;;6.00;;
67500;SDS011;54349;52.528;19.760;2023-01-29T17:55:30;8.70;;;5.60;;
67500;SDS011;54349;52.528;19.760;2023-01-29T17:57:58;9.70;;;5.80;;
67500;SDS011;54349;52.528;19.760;2023-01-29T18:00:28;10.50;;;6.20;;
67500;SDS011;54349;52.528;19.760;2023-01-29T18:02:56;9.10;;;5.90;;
67500;SDS011;54349;52.528;19.760;2023-01-29T18:05:28;10.10;;;6.30;;